createdAt,value
2017-03-26T00:00:04.234Z,0
2017-03-26T00:00:30.509Z,0
2017-03-26T00:00:56.578Z,0
2017-03-26T00:01:22.700Z,0
2017-03-26T00:01:48.822Z,0
2017-03-26T00:02:14.980Z,0
2017-03-26T00:02:41.084Z,0
2017-03-26T00:03:07.208Z,0
2017-03-26T00:03:33.439Z,0
2017-03-26T00:03:59.719Z,0
2017-03-26T00:04:25.850Z,0
2017-03-26T00:04:51.972Z,0
2017-03-26T00:05:18.195Z,0
2017-03-26T00:05:44.375Z,0
2017-03-26T00:06:10.549Z,0
2017-03-26T00:06:36.721Z,0
2017-03-26T00:07:02.883Z,0
2017-03-26T00:07:29.015Z,0
2017-03-26T00:07:55.201Z,0
2017-03-26T00:08:21.369Z,0
2017-03-26T00:08:47.527Z,0
2017-03-26T00:09:13.659Z,0
2017-03-26T00:09:39.899Z,0
2017-03-26T00:10:06.021Z,0
2017-03-26T00:10:32.120Z,0
2017-03-26T00:10:58.277Z,0
2017-03-26T00:11:24.381Z,0
2017-03-26T00:11:50.538Z,0
2017-03-26T00:12:16.640Z,0
2017-03-26T00:12:42.743Z,0
2017-03-26T00:13:08.904Z,0
2017-03-26T00:13:35.069Z,0
2017-03-26T00:14:01.158Z,0
2017-03-26T00:14:27.298Z,0
2017-03-26T00:14:53.403Z,0
2017-03-26T00:15:19.554Z,0
2017-03-26T00:15:45.714Z,0
2017-03-26T00:16:11.846Z,0
2017-03-26T00:16:38.008Z,0
2017-03-26T00:17:04.114Z,0
2017-03-26T00:17:30.196Z,0
2017-03-26T00:17:56.324Z,0
2017-03-26T00:18:22.476Z,0
2017-03-26T00:18:48.558Z,0
2017-03-26T00:19:14.668Z,0
2017-03-26T00:19:40.821Z,0
2017-03-26T00:20:06.972Z,0
2017-03-26T00:20:33.100Z,0
2017-03-26T00:20:59.181Z,0
2017-03-26T00:21:25.372Z,0
2017-03-26T00:21:51.477Z,0
2017-03-26T00:22:17.700Z,0
2017-03-26T00:22:43.902Z,0
2017-03-26T00:23:10.085Z,0
2017-03-26T00:23:36.272Z,0
2017-03-26T00:24:02.436Z,0
2017-03-26T00:24:28.541Z,0
2017-03-26T00:24:54.734Z,0
2017-03-26T00:25:20.835Z,0
2017-03-26T00:25:46.959Z,0
2017-03-26T00:26:13.084Z,0
2017-03-26T00:26:39.216Z,0
2017-03-26T00:27:05.404Z,0
2017-03-26T00:27:31.523Z,0
2017-03-26T00:27:57.710Z,0
2017-03-26T00:28:23.889Z,0
2017-03-26T00:28:50.138Z,0
2017-03-26T00:29:16.289Z,0
2017-03-26T00:29:42.458Z,0
2017-03-26T00:30:08.657Z,0
2017-03-26T00:30:34.816Z,0
2017-03-26T00:31:00.934Z,0
2017-03-26T00:31:27.131Z,0
2017-03-26T00:31:53.275Z,0
2017-03-26T00:32:19.364Z,0
2017-03-26T00:32:45.515Z,0
2017-03-26T00:33:11.668Z,0
2017-03-26T00:33:37.880Z,0
2017-03-26T00:34:04.019Z,0
2017-03-26T00:34:30.169Z,0
2017-03-26T00:34:56.279Z,0
2017-03-26T00:35:22.466Z,0
2017-03-26T00:35:48.567Z,0
2017-03-26T00:36:14.847Z,0
2017-03-26T00:36:41.004Z,0
2017-03-26T00:37:07.083Z,0
2017-03-26T00:37:33.195Z,0
2017-03-26T00:37:59.378Z,0
2017-03-26T00:38:25.526Z,0
2017-03-26T00:38:51.705Z,0
2017-03-26T00:39:17.840Z,0
2017-03-26T00:39:43.975Z,0
2017-03-26T00:40:10.145Z,0
2017-03-26T00:40:36.359Z,0
2017-03-26T00:41:02.486Z,0
2017-03-26T00:41:28.643Z,0
2017-03-26T00:41:54.774Z,0
2017-03-26T00:42:20.927Z,0
2017-03-26T00:42:47.080Z,0
2017-03-26T00:43:13.194Z,0
2017-03-26T00:43:39.420Z,0
2017-03-26T00:44:05.547Z,0
2017-03-26T00:44:31.661Z,0
2017-03-26T00:44:57.905Z,0
2017-03-26T00:45:24.074Z,0
2017-03-26T00:45:50.173Z,0
2017-03-26T00:46:16.371Z,0
2017-03-26T00:46:42.515Z,0
2017-03-26T00:47:08.649Z,0
2017-03-26T00:47:34.819Z,0
2017-03-26T00:48:01.043Z,0
2017-03-26T00:48:27.296Z,0
2017-03-26T00:48:53.566Z,0
2017-03-26T00:49:19.782Z,0
2017-03-26T00:49:45.912Z,0
2017-03-26T00:50:12.113Z,0
2017-03-26T00:50:38.241Z,0
2017-03-26T00:51:04.348Z,0
2017-03-26T00:51:30.426Z,0
2017-03-26T00:51:56.530Z,0
2017-03-26T00:52:22.632Z,0
2017-03-26T00:52:48.759Z,0
2017-03-26T00:53:14.887Z,0
2017-03-26T00:53:41.039Z,0
2017-03-26T00:54:07.162Z,0
2017-03-26T00:54:33.291Z,0
2017-03-26T00:54:59.397Z,0
2017-03-26T00:55:25.522Z,0
2017-03-26T00:55:51.649Z,0
2017-03-26T00:56:17.732Z,0
2017-03-26T00:56:43.808Z,0
2017-03-26T00:57:09.888Z,0
2017-03-26T00:57:36.015Z,0
2017-03-26T00:58:02.169Z,0
2017-03-26T00:58:28.318Z,0
2017-03-26T00:58:54.443Z,0
2017-03-26T00:59:20.547Z,0
2017-03-26T00:59:46.628Z,0
2017-03-26T01:00:12.728Z,0
2017-03-26T01:00:38.809Z,0
2017-03-26T01:01:04.891Z,0
2017-03-26T01:01:30.969Z,0
2017-03-26T01:01:57.098Z,0
2017-03-26T01:02:23.272Z,0
2017-03-26T01:02:49.331Z,0
2017-03-26T01:03:15.506Z,0
2017-03-26T01:03:41.659Z,0
2017-03-26T01:04:07.787Z,0
2017-03-26T01:04:33.892Z,0
2017-03-26T01:04:59.974Z,0
2017-03-26T01:05:26.119Z,0
2017-03-26T01:05:52.227Z,0
2017-03-26T01:06:18.328Z,0
2017-03-26T01:06:44.411Z,0
2017-03-26T01:07:10.537Z,0
2017-03-26T01:07:36.685Z,0
2017-03-26T01:08:02.796Z,0
2017-03-26T01:08:28.918Z,0
2017-03-26T01:08:55.048Z,0
2017-03-26T01:09:21.175Z,0
2017-03-26T01:09:47.298Z,0
2017-03-26T01:10:13.401Z,0
2017-03-26T01:10:39.481Z,0
2017-03-26T01:11:05.561Z,0
2017-03-26T01:11:31.684Z,0
2017-03-26T01:11:57.809Z,0
2017-03-26T01:12:23.890Z,0
2017-03-26T01:12:49.991Z,0
2017-03-26T01:13:16.120Z,0
2017-03-26T01:13:42.247Z,0
2017-03-26T01:14:08.402Z,0
2017-03-26T01:14:34.528Z,0
2017-03-26T01:15:00.634Z,0
2017-03-26T01:15:26.738Z,0
2017-03-26T01:15:52.842Z,0
2017-03-26T01:16:18.925Z,0
2017-03-26T01:16:45.108Z,0
2017-03-26T01:17:11.189Z,0
2017-03-26T01:17:37.294Z,0
2017-03-26T01:18:03.469Z,0
2017-03-26T01:18:29.587Z,0
2017-03-26T01:18:55.737Z,0
2017-03-26T01:19:21.890Z,0
2017-03-26T01:19:48.036Z,0
2017-03-26T01:20:14.187Z,0
2017-03-26T01:20:40.340Z,0
2017-03-26T01:21:06.466Z,0
2017-03-26T01:21:32.722Z,0
2017-03-26T01:21:58.852Z,0
2017-03-26T01:22:24.957Z,0
2017-03-26T01:22:51.063Z,0
2017-03-26T01:23:17.189Z,0
2017-03-26T01:23:43.341Z,0
2017-03-26T01:24:09.511Z,0
2017-03-26T01:24:35.664Z,0
2017-03-26T01:25:01.812Z,0
2017-03-26T01:25:27.943Z,0
2017-03-26T01:25:54.025Z,0
2017-03-26T01:26:20.131Z,0
2017-03-26T01:26:46.211Z,0
2017-03-26T01:27:12.311Z,0
2017-03-26T01:27:38.392Z,0
2017-03-26T01:28:04.542Z,0
2017-03-26T01:28:30.645Z,0
2017-03-26T01:28:56.795Z,0
2017-03-26T01:29:22.921Z,0
2017-03-26T01:29:49.071Z,0
2017-03-26T01:30:15.175Z,0
2017-03-26T01:30:41.279Z,0
2017-03-26T01:31:07.383Z,0
2017-03-26T01:31:33.462Z,0
2017-03-26T01:31:59.543Z,0
2017-03-26T01:32:25.649Z,0
2017-03-26T01:32:51.774Z,0
2017-03-26T01:33:17.877Z,0
2017-03-26T01:33:44.003Z,0
2017-03-26T01:34:10.170Z,0
2017-03-26T01:34:36.274Z,0
2017-03-26T01:35:02.426Z,0
2017-03-26T01:35:28.532Z,0
2017-03-26T01:35:54.634Z,0
2017-03-26T01:36:20.741Z,0
2017-03-26T01:36:46.846Z,0
2017-03-26T01:37:12.976Z,0
2017-03-26T01:37:39.103Z,0
2017-03-26T01:38:05.227Z,0
2017-03-26T01:38:31.377Z,0
2017-03-26T01:38:57.508Z,0
2017-03-26T01:39:23.633Z,0
2017-03-26T01:39:49.762Z,0
2017-03-26T01:40:15.866Z,0
2017-03-26T01:40:41.969Z,0
2017-03-26T01:41:08.076Z,0
2017-03-26T01:41:34.156Z,0
2017-03-26T01:42:00.237Z,0
2017-03-26T01:42:26.369Z,0
2017-03-26T01:42:52.438Z,0
2017-03-26T01:43:18.538Z,0
2017-03-26T01:43:44.668Z,0
2017-03-26T01:44:10.818Z,0
2017-03-26T01:44:36.921Z,0
2017-03-26T01:45:03.047Z,0
2017-03-26T01:45:29.128Z,0
2017-03-26T01:45:55.209Z,0
2017-03-26T01:46:21.313Z,0
2017-03-26T01:46:47.393Z,0
2017-03-26T01:47:13.543Z,0
2017-03-26T01:47:39.624Z,0
2017-03-26T01:48:05.778Z,0
2017-03-26T01:48:31.926Z,0
2017-03-26T01:48:58.055Z,0
2017-03-26T01:49:24.180Z,0
2017-03-26T01:49:50.286Z,0
2017-03-26T01:50:16.434Z,0
2017-03-26T01:50:42.536Z,0
2017-03-26T01:51:08.616Z,0
2017-03-26T01:51:34.720Z,0
2017-03-26T01:52:01.184Z,0
2017-03-26T01:52:27.325Z,0
2017-03-26T01:52:53.457Z,0
2017-03-26T01:53:19.563Z,0
2017-03-26T01:53:45.669Z,0
2017-03-26T01:54:11.818Z,0
2017-03-26T01:54:37.946Z,0
2017-03-26T01:55:04.074Z,0
2017-03-26T01:55:30.199Z,0
2017-03-26T01:55:56.280Z,0
2017-03-26T01:56:22.358Z,0
2017-03-26T01:56:48.462Z,0
2017-03-26T01:57:14.544Z,0
2017-03-26T01:57:40.671Z,0
2017-03-26T01:58:06.795Z,0
2017-03-26T01:58:32.943Z,0
2017-03-26T01:58:59.117Z,0
2017-03-26T01:59:25.262Z,0
2017-03-26T01:59:51.368Z,0
2017-03-26T02:00:17.520Z,0
2017-03-26T02:00:43.603Z,0
2017-03-26T02:01:09.706Z,0
2017-03-26T02:01:35.809Z,0
2017-03-26T02:02:01.889Z,0
2017-03-26T02:02:27.990Z,0
2017-03-26T02:02:54.097Z,0
2017-03-26T02:03:20.246Z,0
2017-03-26T02:03:46.350Z,0
2017-03-26T02:04:12.455Z,0
2017-03-26T02:04:38.602Z,0
2017-03-26T02:05:04.683Z,0
2017-03-26T02:05:30.787Z,0
2017-03-26T02:05:56.868Z,0
2017-03-26T02:06:22.973Z,0
2017-03-26T02:06:49.053Z,0
2017-03-26T02:07:15.156Z,0
2017-03-26T02:07:41.239Z,0
2017-03-26T02:08:07.343Z,0
2017-03-26T02:08:33.495Z,0
2017-03-26T02:08:59.672Z,0
2017-03-26T02:09:25.821Z,0
2017-03-26T02:09:51.924Z,0
2017-03-26T02:10:18.026Z,0
2017-03-26T02:10:44.129Z,0
2017-03-26T02:11:10.209Z,0
2017-03-26T02:11:36.289Z,0
2017-03-26T02:12:02.394Z,0
2017-03-26T02:12:28.521Z,0
2017-03-26T02:12:54.642Z,0
2017-03-26T02:13:20.769Z,0
2017-03-26T02:13:46.873Z,0
2017-03-26T02:14:13.045Z,0
2017-03-26T02:14:39.193Z,0
2017-03-26T02:15:05.272Z,0
2017-03-26T02:15:31.378Z,0
2017-03-26T02:15:57.524Z,0
2017-03-26T02:16:23.612Z,0
2017-03-26T02:16:49.735Z,0
2017-03-26T02:17:15.815Z,0
2017-03-26T02:17:41.941Z,0
2017-03-26T02:18:08.069Z,0
2017-03-26T02:18:34.243Z,0
2017-03-26T02:19:00.387Z,0
2017-03-26T02:19:26.514Z,0
2017-03-26T02:19:52.594Z,0
2017-03-26T02:20:18.697Z,0
2017-03-26T02:20:44.801Z,0
2017-03-26T02:21:10.881Z,0
2017-03-26T02:21:37.000Z,0
2017-03-26T02:22:03.082Z,0
2017-03-26T02:22:29.162Z,0
2017-03-26T02:22:55.290Z,0
2017-03-26T02:23:21.418Z,0
2017-03-26T02:23:47.614Z,0
2017-03-26T02:24:13.763Z,0
2017-03-26T02:24:39.913Z,0
2017-03-26T02:25:06.014Z,0
2017-03-26T02:25:32.141Z,0
2017-03-26T02:25:58.243Z,0
2017-03-26T02:26:24.323Z,0
2017-03-26T02:26:50.404Z,0
2017-03-26T02:27:16.486Z,0
2017-03-26T02:27:42.569Z,0
2017-03-26T02:28:08.670Z,0
2017-03-26T02:28:34.772Z,0
2017-03-26T02:29:00.923Z,0
2017-03-26T02:29:27.051Z,0
2017-03-26T02:29:53.133Z,0
2017-03-26T02:30:19.282Z,0
2017-03-26T02:30:45.388Z,0
2017-03-26T02:31:11.538Z,0
2017-03-26T02:31:37.642Z,0
2017-03-26T02:32:03.722Z,0
2017-03-26T02:32:29.804Z,0
2017-03-26T02:32:55.928Z,0
2017-03-26T02:33:22.057Z,0
2017-03-26T02:33:48.162Z,0
2017-03-26T02:34:14.289Z,0
2017-03-26T02:34:40.439Z,0
2017-03-26T02:35:06.589Z,0
2017-03-26T02:35:32.669Z,0
2017-03-26T02:35:58.749Z,0
2017-03-26T02:36:24.849Z,0
2017-03-26T02:36:50.928Z,0
2017-03-26T02:37:17.035Z,0
2017-03-26T02:37:43.160Z,0
2017-03-26T02:38:09.337Z,0
2017-03-26T02:38:35.484Z,0
2017-03-26T02:39:01.654Z,0
2017-03-26T02:39:27.828Z,0
2017-03-26T02:39:53.953Z,0
2017-03-26T02:40:20.056Z,0
2017-03-26T02:40:46.184Z,0
2017-03-26T02:41:12.266Z,0
2017-03-26T02:41:38.346Z,0
2017-03-26T02:42:04.450Z,0
2017-03-26T02:42:30.560Z,0
2017-03-26T02:42:56.681Z,0
2017-03-26T02:43:22.849Z,0
2017-03-26T02:43:49.002Z,0
2017-03-26T02:44:15.148Z,0
2017-03-26T02:44:41.300Z,0
2017-03-26T02:45:07.405Z,0
2017-03-26T02:45:33.511Z,0
2017-03-26T02:45:59.588Z,0
2017-03-26T02:46:25.691Z,0
2017-03-26T02:46:51.817Z,0
2017-03-26T02:47:17.942Z,0
2017-03-26T02:47:44.044Z,0
2017-03-26T02:48:10.150Z,0
2017-03-26T02:48:36.277Z,0
2017-03-26T02:49:02.583Z,0
2017-03-26T02:49:28.733Z,0
2017-03-26T02:49:54.858Z,0
2017-03-26T02:50:20.962Z,0
2017-03-26T02:50:47.044Z,0
2017-03-26T02:51:13.127Z,0
2017-03-26T02:51:39.234Z,0
2017-03-26T02:52:05.337Z,0
2017-03-26T02:52:31.463Z,0
2017-03-26T02:52:57.617Z,0
2017-03-26T02:53:23.788Z,0
2017-03-26T02:53:49.912Z,0
2017-03-26T02:54:16.031Z,0
2017-03-26T02:54:42.116Z,0
2017-03-26T02:55:08.219Z,0
2017-03-26T02:55:34.302Z,0
2017-03-26T02:56:00.380Z,0
2017-03-26T02:56:26.461Z,0
2017-03-26T02:56:52.590Z,0
2017-03-26T02:57:18.713Z,0
2017-03-26T02:57:44.840Z,0
2017-03-26T02:58:10.969Z,0
2017-03-26T02:58:37.097Z,0
2017-03-26T02:59:03.247Z,0
2017-03-26T02:59:29.353Z,0
2017-03-26T02:59:55.461Z,0
2017-03-26T03:00:21.563Z,0
2017-03-26T03:00:47.668Z,0
2017-03-26T03:01:13.774Z,0
2017-03-26T03:01:39.878Z,0
2017-03-26T03:02:05.982Z,0
2017-03-26T03:02:32.060Z,0
2017-03-26T03:02:58.166Z,0
2017-03-26T03:03:24.318Z,0
2017-03-26T03:03:50.492Z,0
2017-03-26T03:04:16.612Z,0
2017-03-26T03:04:42.717Z,0
2017-03-26T03:05:08.887Z,0
2017-03-26T03:05:34.968Z,0
2017-03-26T03:06:01.058Z,0
2017-03-26T03:06:27.155Z,0
2017-03-26T03:06:53.261Z,0
2017-03-26T03:07:19.342Z,0
2017-03-26T03:07:45.489Z,0
2017-03-26T03:08:11.570Z,0
2017-03-26T03:08:37.716Z,0
2017-03-26T03:09:03.863Z,0
2017-03-26T03:09:29.990Z,0
2017-03-26T03:09:56.118Z,0
2017-03-26T03:10:22.268Z,0
2017-03-26T03:10:48.370Z,0
2017-03-26T03:11:14.470Z,0
2017-03-26T03:11:40.553Z,0
2017-03-26T03:12:06.703Z,0
2017-03-26T03:12:32.830Z,0
2017-03-26T03:12:58.984Z,0
2017-03-26T03:13:25.137Z,0
2017-03-26T03:13:51.285Z,0
2017-03-26T03:14:17.460Z,0
2017-03-26T03:14:43.566Z,0
2017-03-26T03:15:09.696Z,0
2017-03-26T03:15:35.804Z,0
2017-03-26T03:16:01.884Z,0
2017-03-26T03:16:27.988Z,0
2017-03-26T03:16:54.069Z,0
2017-03-26T03:17:20.174Z,0
2017-03-26T03:17:46.326Z,0
2017-03-26T03:18:12.451Z,0
2017-03-26T03:18:38.600Z,0
2017-03-26T03:19:04.682Z,0
2017-03-26T03:19:30.834Z,0
2017-03-26T03:19:56.939Z,0
2017-03-26T03:20:23.024Z,0
2017-03-26T03:20:49.129Z,0
2017-03-26T03:21:15.253Z,0
2017-03-26T03:21:41.332Z,0
2017-03-26T03:22:07.436Z,0
2017-03-26T03:22:33.540Z,0
2017-03-26T03:22:59.639Z,0
2017-03-26T03:23:25.811Z,0
2017-03-26T03:23:51.960Z,0
2017-03-26T03:24:18.095Z,0
2017-03-26T03:24:44.188Z,0
2017-03-26T03:25:10.320Z,0
2017-03-26T03:25:36.463Z,0
2017-03-26T03:26:02.507Z,0
2017-03-26T03:26:28.588Z,0
2017-03-26T03:26:54.693Z,0
2017-03-26T03:27:20.794Z,0
2017-03-26T03:27:46.917Z,0
2017-03-26T03:28:13.022Z,0
2017-03-26T03:28:39.174Z,0
2017-03-26T03:29:05.328Z,0
2017-03-26T03:29:31.483Z,0
2017-03-26T03:29:57.612Z,0
2017-03-26T03:30:23.714Z,0
2017-03-26T03:30:49.794Z,0
2017-03-26T03:31:15.875Z,0
2017-03-26T03:31:41.957Z,0
2017-03-26T03:32:08.105Z,0
2017-03-26T03:32:34.187Z,0
2017-03-26T03:33:00.339Z,0
2017-03-26T03:33:26.466Z,0
2017-03-26T03:33:52.604Z,0
2017-03-26T03:34:18.776Z,0
2017-03-26T03:34:44.905Z,0
2017-03-26T03:35:11.052Z,0
2017-03-26T03:35:37.132Z,0
2017-03-26T03:36:03.210Z,0
2017-03-26T03:36:29.314Z,0
2017-03-26T03:36:55.395Z,0
2017-03-26T03:37:21.476Z,0
2017-03-26T03:37:47.605Z,0
2017-03-26T03:38:13.731Z,0
2017-03-26T03:38:39.856Z,0
2017-03-26T03:39:06.027Z,0
2017-03-26T03:39:32.130Z,0
2017-03-26T03:39:58.259Z,0
2017-03-26T03:40:24.362Z,0
2017-03-26T03:40:50.445Z,0
2017-03-26T03:41:16.524Z,0
2017-03-26T03:41:42.606Z,0
2017-03-26T03:42:08.710Z,0
2017-03-26T03:42:34.815Z,0
2017-03-26T03:43:00.941Z,0
2017-03-26T03:43:27.117Z,0
2017-03-26T03:43:53.269Z,0
2017-03-26T03:44:19.419Z,0
2017-03-26T03:44:45.571Z,0
2017-03-26T03:45:11.674Z,0
2017-03-26T03:45:37.752Z,0
2017-03-26T03:46:03.856Z,0
2017-03-26T03:46:29.957Z,0
2017-03-26T03:46:56.060Z,0
2017-03-26T03:47:22.138Z,0
2017-03-26T03:47:48.266Z,0
2017-03-26T03:48:14.372Z,0
2017-03-26T03:48:40.519Z,0
2017-03-26T03:49:06.644Z,0
2017-03-26T03:49:32.795Z,0
2017-03-26T03:49:58.923Z,0
2017-03-26T03:50:25.028Z,0
2017-03-26T03:50:51.154Z,0
2017-03-26T03:51:17.277Z,0
2017-03-26T03:51:43.358Z,0
2017-03-26T03:52:09.438Z,0
2017-03-26T03:52:35.568Z,0
2017-03-26T03:53:01.693Z,0
2017-03-26T03:53:27.841Z,0
2017-03-26T03:53:54.013Z,0
2017-03-26T03:54:20.137Z,0
2017-03-26T03:54:46.285Z,0
2017-03-26T03:55:12.409Z,0
2017-03-26T03:55:38.490Z,0
2017-03-26T03:56:04.573Z,0
2017-03-26T03:56:30.700Z,0
2017-03-26T03:56:56.823Z,0
2017-03-26T03:57:22.903Z,0
2017-03-26T03:57:49.030Z,0
2017-03-26T03:58:15.181Z,0
2017-03-26T03:58:41.329Z,0
2017-03-26T03:59:07.480Z,0
2017-03-26T03:59:33.585Z,0
2017-03-26T03:59:59.759Z,0
2017-03-26T04:00:25.885Z,0
2017-03-26T04:00:51.966Z,0
2017-03-26T04:01:18.070Z,0
2017-03-26T04:01:44.152Z,0
2017-03-26T04:02:10.256Z,0
2017-03-26T04:02:36.358Z,0
2017-03-26T04:03:02.485Z,0
2017-03-26T04:03:28.887Z,0
2017-03-26T04:03:55.011Z,0
2017-03-26T04:04:21.186Z,0
2017-03-26T04:04:47.315Z,0
2017-03-26T04:05:13.444Z,0
2017-03-26T04:05:39.548Z,0
2017-03-26T04:06:05.653Z,0
2017-03-26T04:06:31.756Z,0
2017-03-26T04:06:57.837Z,0
2017-03-26T04:07:23.919Z,0
2017-03-26T04:07:50.052Z,0
2017-03-26T04:08:16.150Z,0
2017-03-26T04:08:42.319Z,0
2017-03-26T04:09:08.447Z,0
2017-03-26T04:09:34.573Z,0
2017-03-26T04:10:00.676Z,0
2017-03-26T04:10:26.780Z,0
2017-03-26T04:10:52.861Z,0
2017-03-26T04:11:18.966Z,0
2017-03-26T04:11:45.091Z,0
2017-03-26T04:12:11.173Z,0
2017-03-26T04:12:37.299Z,0
2017-03-26T04:13:03.422Z,0
2017-03-26T04:13:29.529Z,0
2017-03-26T04:13:55.608Z,0
2017-03-26T04:14:21.712Z,0
2017-03-26T04:14:47.818Z,0
2017-03-26T04:15:13.943Z,0
2017-03-26T04:15:40.023Z,0
2017-03-26T04:16:06.152Z,0
2017-03-26T04:16:32.306Z,0
2017-03-26T04:16:58.352Z,0
2017-03-26T04:17:24.458Z,0
2017-03-26T04:17:50.561Z,0
2017-03-26T04:18:16.639Z,0
2017-03-26T04:18:42.766Z,0
2017-03-26T04:19:08.892Z,0
2017-03-26T04:19:35.017Z,0
2017-03-26T04:20:01.097Z,0
2017-03-26T04:20:27.203Z,0
2017-03-26T04:20:53.282Z,0
2017-03-26T04:21:19.408Z,0
2017-03-26T04:21:45.509Z,0
2017-03-26T04:22:11.613Z,0
2017-03-26T04:22:37.693Z,0
2017-03-26T04:23:03.842Z,0
2017-03-26T04:23:29.993Z,0
2017-03-26T04:23:56.141Z,0
2017-03-26T04:24:22.267Z,0
2017-03-26T04:24:48.372Z,0
2017-03-26T04:25:14.522Z,0
2017-03-26T04:25:40.606Z,0
2017-03-26T04:26:06.758Z,0
2017-03-26T04:26:32.860Z,0
2017-03-26T04:26:58.966Z,0
2017-03-26T04:27:25.069Z,0
2017-03-26T04:27:51.217Z,0
2017-03-26T04:28:17.319Z,0
2017-03-26T04:28:43.497Z,0
2017-03-26T04:29:09.600Z,0
2017-03-26T04:29:35.727Z,0
2017-03-26T04:30:01.856Z,0
2017-03-26T04:30:27.960Z,0
2017-03-26T04:30:54.040Z,0
2017-03-26T04:31:20.119Z,0
2017-03-26T04:31:46.246Z,0
2017-03-26T04:32:12.350Z,0
2017-03-26T04:32:38.475Z,0
2017-03-26T04:33:04.621Z,0
2017-03-26T04:33:31.116Z,0
2017-03-26T04:33:57.244Z,0
2017-03-26T04:34:23.394Z,0
2017-03-26T04:34:49.497Z,0
2017-03-26T04:35:15.646Z,0
2017-03-26T04:35:41.728Z,0
2017-03-26T04:36:07.833Z,0
2017-03-26T04:36:33.909Z,0
2017-03-26T04:37:00.012Z,0
2017-03-26T04:37:26.091Z,0
2017-03-26T04:37:52.217Z,0
2017-03-26T04:38:18.369Z,0
2017-03-26T04:38:44.543Z,0
2017-03-26T04:39:10.668Z,0
2017-03-26T04:39:36.795Z,0
2017-03-26T04:40:02.900Z,0
2017-03-26T04:40:29.001Z,0
2017-03-26T04:40:55.082Z,0
2017-03-26T04:41:21.164Z,0
2017-03-26T04:41:47.267Z,0
2017-03-26T04:42:13.390Z,0
2017-03-26T04:42:39.517Z,0
2017-03-26T04:43:05.642Z,0
2017-03-26T04:43:31.794Z,0
2017-03-26T04:43:57.897Z,0
2017-03-26T04:44:24.046Z,0
2017-03-26T04:44:50.149Z,0
2017-03-26T04:45:16.229Z,0
2017-03-26T04:45:42.310Z,0
2017-03-26T04:46:08.391Z,0
2017-03-26T04:46:34.493Z,0
2017-03-26T04:47:00.594Z,0
2017-03-26T04:47:26.724Z,4
2017-03-26T04:47:52.852Z,4
2017-03-26T04:48:18.979Z,4
2017-03-26T04:48:45.157Z,0
2017-03-26T04:49:11.229Z,0
2017-03-26T04:49:37.377Z,0
2017-03-26T04:50:03.479Z,0
2017-03-26T04:50:29.610Z,0
2017-03-26T04:50:55.709Z,4
2017-03-26T04:51:21.814Z,4
2017-03-26T04:51:47.937Z,4
2017-03-26T04:52:14.017Z,4
2017-03-26T04:52:40.146Z,0
2017-03-26T04:53:06.274Z,4
2017-03-26T04:53:32.423Z,4
2017-03-26T04:53:58.552Z,4
2017-03-26T04:54:24.633Z,4
2017-03-26T04:54:50.734Z,4
2017-03-26T04:55:16.883Z,8
2017-03-26T04:55:42.988Z,4
2017-03-26T04:56:09.095Z,8
2017-03-26T04:56:35.220Z,8
2017-03-26T04:57:01.299Z,8
2017-03-26T04:57:27.427Z,8
2017-03-26T04:57:53.597Z,8
2017-03-26T04:58:19.724Z,8
2017-03-26T04:58:45.872Z,8
2017-03-26T04:59:11.998Z,8
2017-03-26T04:59:38.123Z,12
2017-03-26T05:00:04.229Z,16
2017-03-26T05:00:30.308Z,16
2017-03-26T05:00:56.409Z,16
2017-03-26T05:01:22.491Z,20
2017-03-26T05:01:48.596Z,20
2017-03-26T05:02:14.676Z,24
2017-03-26T05:02:40.757Z,28
2017-03-26T05:03:06.861Z,24
2017-03-26T05:03:32.966Z,28
2017-03-26T05:03:59.119Z,28
2017-03-26T05:04:25.292Z,32
2017-03-26T05:04:51.396Z,32
2017-03-26T05:05:17.499Z,36
2017-03-26T05:05:43.602Z,40
2017-03-26T05:06:09.732Z,40
2017-03-26T05:06:35.837Z,40
2017-03-26T05:07:01.915Z,44
2017-03-26T05:07:28.038Z,40
2017-03-26T05:07:54.166Z,40
2017-03-26T05:08:20.290Z,44
2017-03-26T05:08:46.393Z,48
2017-03-26T05:09:12.542Z,52
2017-03-26T05:09:38.672Z,56
2017-03-26T05:10:04.778Z,64
2017-03-26T05:10:30.878Z,64
2017-03-26T05:10:56.982Z,68
2017-03-26T05:11:23.107Z,68
2017-03-26T05:11:49.185Z,68
2017-03-26T05:12:15.313Z,68
2017-03-26T05:12:41.442Z,68
2017-03-26T05:13:07.568Z,72
2017-03-26T05:13:33.696Z,76
2017-03-26T05:13:59.848Z,84
2017-03-26T05:14:26.020Z,88
2017-03-26T05:14:52.122Z,96
2017-03-26T05:15:18.225Z,96
2017-03-26T05:15:44.307Z,104
2017-03-26T05:16:10.387Z,108
2017-03-26T05:16:36.468Z,116
2017-03-26T05:17:02.552Z,120
2017-03-26T05:17:28.658Z,124
2017-03-26T05:17:54.784Z,128
2017-03-26T05:18:20.956Z,128
2017-03-26T05:18:47.061Z,128
2017-03-26T05:19:13.211Z,132
2017-03-26T05:19:39.339Z,132
2017-03-26T05:20:05.470Z,136
2017-03-26T05:20:31.551Z,136
2017-03-26T05:20:57.653Z,148
2017-03-26T05:21:23.734Z,156
2017-03-26T05:21:49.840Z,168
2017-03-26T05:22:15.943Z,176
2017-03-26T05:22:42.092Z,180
2017-03-26T05:23:08.219Z,184
2017-03-26T05:23:34.298Z,192
2017-03-26T05:24:00.445Z,196
2017-03-26T05:24:26.550Z,204
2017-03-26T05:24:52.635Z,212
2017-03-26T05:25:18.764Z,224
2017-03-26T05:25:44.846Z,240
2017-03-26T05:26:10.926Z,248
2017-03-26T05:26:37.007Z,264
2017-03-26T05:27:03.090Z,280
2017-03-26T05:27:29.196Z,288
2017-03-26T05:27:55.352Z,292
2017-03-26T05:28:21.497Z,296
2017-03-26T05:28:47.649Z,304
2017-03-26T05:29:13.824Z,312
2017-03-26T05:29:39.946Z,324
2017-03-26T05:30:06.073Z,340
2017-03-26T05:30:32.199Z,368
2017-03-26T05:30:58.322Z,404
2017-03-26T05:31:24.424Z,428
2017-03-26T05:31:50.528Z,444
2017-03-26T05:32:16.657Z,452
2017-03-26T05:32:42.739Z,452
2017-03-26T05:33:08.867Z,456
2017-03-26T05:33:35.038Z,460
2017-03-26T05:34:01.165Z,468
2017-03-26T05:34:27.270Z,480
2017-03-26T05:34:53.373Z,492
2017-03-26T05:35:19.500Z,524
2017-03-26T05:35:45.582Z,552
2017-03-26T05:36:11.708Z,588
2017-03-26T05:36:37.811Z,624
2017-03-26T05:37:03.889Z,664
2017-03-26T05:37:30.020Z,688
2017-03-26T05:37:56.171Z,684
2017-03-26T05:38:22.273Z,672
2017-03-26T05:38:48.422Z,676
2017-03-26T05:39:14.576Z,696
2017-03-26T05:39:40.673Z,712
2017-03-26T05:40:06.825Z,724
2017-03-26T05:40:32.929Z,748
2017-03-26T05:40:59.055Z,780
2017-03-26T05:41:25.202Z,808
2017-03-26T05:41:51.286Z,800
2017-03-26T05:42:17.366Z,784
2017-03-26T05:42:43.468Z,788
2017-03-26T05:43:09.640Z,824
2017-03-26T05:43:35.789Z,860
2017-03-26T05:44:01.894Z,880
2017-03-26T05:44:28.044Z,896
2017-03-26T05:44:54.177Z,904
2017-03-26T05:45:20.301Z,912
2017-03-26T05:45:46.403Z,916
2017-03-26T05:46:12.508Z,964
2017-03-26T05:46:38.586Z,1004
2017-03-26T05:47:04.667Z,1024
2017-03-26T05:47:30.774Z,1044
2017-03-26T05:47:56.880Z,1080
2017-03-26T05:48:23.031Z,1132
2017-03-26T05:48:49.156Z,1148
2017-03-26T05:49:15.259Z,1120
2017-03-26T05:49:41.409Z,1104
2017-03-26T05:50:07.529Z,1112
2017-03-26T05:50:33.610Z,1136
2017-03-26T05:50:59.716Z,1212
2017-03-26T05:51:25.817Z,1312
2017-03-26T05:51:51.896Z,1368
2017-03-26T05:52:18.044Z,1332
2017-03-26T05:52:44.130Z,1304
2017-03-26T05:53:10.257Z,1356
2017-03-26T05:53:36.433Z,1416
2017-03-26T05:54:02.603Z,1472
2017-03-26T05:54:28.733Z,1472
2017-03-26T05:54:54.837Z,1472
2017-03-26T05:55:20.987Z,1476
2017-03-26T05:55:47.090Z,1512
2017-03-26T05:56:13.169Z,1580
2017-03-26T05:56:39.271Z,1604
2017-03-26T05:57:05.377Z,1620
2017-03-26T05:57:31.549Z,1644
2017-03-26T05:57:57.631Z,1672
2017-03-26T05:58:23.756Z,1724
2017-03-26T05:58:49.907Z,1812
2017-03-26T05:59:16.030Z,1900
2017-03-26T05:59:42.182Z,1956
2017-03-26T06:00:08.316Z,2004
2017-03-26T06:00:34.392Z,2036
2017-03-26T06:01:00.478Z,2060
2017-03-26T06:01:26.558Z,2072
2017-03-26T06:01:52.642Z,2108
2017-03-26T06:02:18.736Z,2212
2017-03-26T06:02:44.864Z,2376
2017-03-26T06:03:10.992Z,2504
2017-03-26T06:03:37.136Z,2496
2017-03-26T06:04:03.266Z,2380
2017-03-26T06:04:29.380Z,2308
2017-03-26T06:04:55.521Z,2432
2017-03-26T06:05:21.682Z,2624
2017-03-26T06:05:47.788Z,2752
2017-03-26T06:06:13.892Z,2840
2017-03-26T06:06:40.017Z,2720
2017-03-26T06:07:06.097Z,2448
2017-03-26T06:07:32.201Z,2328
2017-03-26T06:07:58.328Z,2336
2017-03-26T06:08:24.454Z,2396
2017-03-26T06:08:50.626Z,2592
2017-03-26T06:09:16.729Z,3008
2017-03-26T06:09:42.877Z,3432
2017-03-26T06:10:09.003Z,3596
2017-03-26T06:10:35.107Z,3352
2017-03-26T06:11:01.188Z,3028
2017-03-26T06:11:27.270Z,2908
2017-03-26T06:11:53.355Z,2960
2017-03-26T06:12:19.479Z,3100
2017-03-26T06:12:45.651Z,3252
2017-03-26T06:13:11.759Z,3352
2017-03-26T06:13:37.860Z,3384
2017-03-26T06:14:03.989Z,3484
2017-03-26T06:14:30.117Z,3636
2017-03-26T06:14:56.225Z,3772
2017-03-26T06:15:22.328Z,3968
2017-03-26T06:15:48.434Z,4136
2017-03-26T06:16:14.583Z,4212
2017-03-26T06:16:40.713Z,4048
2017-03-26T06:17:06.839Z,3872
2017-03-26T06:17:32.944Z,3876
2017-03-26T06:17:59.119Z,3980
2017-03-26T06:18:25.294Z,3984
2017-03-26T06:18:51.423Z,4044
2017-03-26T06:19:17.547Z,4192
2017-03-26T06:19:43.701Z,4416